createdAt,value
2019-05-16T00:00:10.867Z,99.90
2019-05-16T00:02:39.623Z,99.90
2019-05-16T00:05:08.559Z,99.90
2019-05-16T00:07:39.018Z,99.90
2019-05-16T00:10:08.429Z,99.90
2019-05-16T00:12:39.583Z,99.90
2019-05-16T00:15:08.991Z,99.90
2019-05-16T00:17:38.794Z,99.90
2019-05-16T00:20:09.665Z,99.90
2019-05-16T00:22:39.458Z,99.90
2019-05-16T00:25:08.963Z,99.90
2019-05-16T00:27:38.656Z,99.90
2019-05-16T00:30:09.134Z,99.90
2019-05-16T00:32:39.107Z,99.90
2019-05-16T00:35:09.329Z,99.90
2019-05-16T00:37:39.300Z,99.90
2019-05-16T00:40:09.518Z,99.90
2019-05-16T00:42:39.024Z,99.90
2019-05-16T00:45:09.146Z,99.90
2019-05-16T00:47:38.921Z,99.90
2019-05-16T00:50:08.885Z,99.90
2019-05-16T00:52:39.491Z,99.90
2019-05-16T00:55:08.737Z,99.90
2019-05-16T00:57:38.868Z,99.90
2019-05-16T01:00:09.264Z,99.90
2019-05-16T01:02:38.273Z,99.90
2019-05-16T01:05:08.527Z,99.90
2019-05-16T01:07:39.201Z,99.90
2019-05-16T01:10:09.155Z,99.90
2019-05-16T01:12:38.986Z,99.90
2019-05-16T01:15:08.729Z,99.90
2019-05-16T01:17:39.058Z,99.90
2019-05-16T01:20:08.548Z,99.90
2019-05-16T01:22:38.581Z,99.90
2019-05-16T01:25:09.524Z,99.90
2019-05-16T01:27:38.710Z,99.90
2019-05-16T01:30:09.153Z,99.90
2019-05-16T01:32:39.186Z,99.90
2019-05-16T01:35:08.606Z,99.90
2019-05-16T01:37:38.366Z,99.90
2019-05-16T01:40:08.583Z,99.90
2019-05-16T01:42:38.589Z,99.90
2019-05-16T01:45:08.649Z,99.90
2019-05-16T01:47:39.370Z,99.90
2019-05-16T01:50:08.953Z,99.90
2019-05-16T01:52:38.342Z,99.90
2019-05-16T01:55:08.278Z,99.90
2019-05-16T01:57:39.128Z,99.90
2019-05-16T02:00:08.591Z,99.90
2019-05-16T02:02:38.514Z,99.90
2019-05-16T02:05:08.677Z,99.90
2019-05-16T02:07:38.713Z,99.90
2019-05-16T02:10:08.689Z,99.90
2019-05-16T02:12:38.429Z,99.90
2019-05-16T02:15:08.468Z,99.90
2019-05-16T02:17:38.528Z,99.90
2019-05-16T02:20:08.776Z,99.90
2019-05-16T02:22:38.950Z,99.90
2019-05-16T02:25:08.538Z,99.90
2019-05-16T02:27:38.173Z,99.90
2019-05-16T02:30:12.766Z,99.90
2019-05-16T02:32:41.936Z,99.90
2019-05-16T02:35:11.715Z,99.90
2019-05-16T02:37:42.493Z,99.90
2019-05-16T02:40:12.552Z,99.90
2019-05-16T02:42:42.509Z,99.90
2019-05-16T02:45:11.418Z,99.90
2019-05-16T02:47:42.439Z,99.90
2019-05-16T02:50:12.172Z,99.90
2019-05-16T02:52:42.100Z,99.90
2019-05-16T02:55:11.920Z,99.90
2019-05-16T02:57:41.857Z,99.90
2019-05-16T03:00:12.393Z,99.90
2019-05-16T03:02:42.087Z,99.90
2019-05-16T03:05:12.290Z,99.90
2019-05-16T03:07:47.330Z,99.90
2019-05-16T03:10:14.067Z,99.90
2019-05-16T03:12:43.912Z,99.90
2019-05-16T03:15:12.968Z,99.90
2019-05-16T03:17:43.872Z,99.90
2019-05-16T03:20:13.462Z,99.90
2019-05-16T03:22:43.172Z,99.90
2019-05-16T03:25:11.980Z,99.90
2019-05-16T03:27:41.566Z,99.90
2019-05-16T03:30:15.890Z,99.90
2019-05-16T03:32:44.662Z,99.90
2019-05-16T03:35:15.261Z,99.90
2019-05-16T03:37:55.217Z,99.90
2019-05-16T03:40:15.857Z,99.90
2019-05-16T03:42:44.465Z,99.90
2019-05-16T03:45:13.551Z,99.90
2019-05-16T03:47:42.943Z,99.90
2019-05-16T03:50:11.989Z,99.90
2019-05-16T03:52:43.583Z,99.90
2019-05-16T03:55:11.476Z,99.90
2019-05-16T03:57:41.713Z,99.90
2019-05-16T04:00:11.778Z,99.90
2019-05-16T04:02:41.914Z,99.90
2019-05-16T04:05:12.001Z,99.90
2019-05-16T04:07:41.909Z,99.90
2019-05-16T04:10:11.220Z,99.90
2019-05-16T04:12:42.014Z,99.90
2019-05-16T04:15:11.269Z,99.90
2019-05-16T04:17:41.353Z,99.90
2019-05-16T04:20:11.753Z,99.90
2019-05-16T04:22:40.861Z,99.90
2019-05-16T04:25:11.420Z,99.90
2019-05-16T04:27:41.582Z,99.90
2019-05-16T04:30:12.089Z,99.90
2019-05-16T04:32:41.927Z,99.90
2019-05-16T04:35:11.596Z,99.90
2019-05-16T04:37:42.349Z,99.90
2019-05-16T04:40:12.062Z,99.90
2019-05-16T04:42:42.009Z,99.90
2019-05-16T04:45:12.051Z,99.90
2019-05-16T04:47:41.501Z,99.90
2019-05-16T04:50:11.915Z,99.90
2019-05-16T04:52:41.849Z,99.90
2019-05-16T04:55:12.068Z,99.90
2019-05-16T04:57:42.196Z,99.90
2019-05-16T05:00:12.019Z,99.90
2019-05-16T05:02:41.897Z,99.90
2019-05-16T05:05:12.937Z,99.90
2019-05-16T05:07:41.878Z,99.90
2019-05-16T05:10:11.560Z,99.90
2019-05-16T05:12:41.050Z,99.90
2019-05-16T05:15:11.466Z,99.90
2019-05-16T05:17:41.313Z,99.90
2019-05-16T05:20:10.912Z,99.90
2019-05-16T05:22:40.016Z,99.90
2019-05-16T05:25:10.835Z,99.90
2019-05-16T05:27:41.224Z,99.90
2019-05-16T05:30:12.005Z,99.90
2019-05-16T05:32:41.255Z,99.90
2019-05-16T05:35:10.774Z,99.90
2019-05-16T05:37:41.058Z,99.90
2019-05-16T05:40:10.710Z,99.90
2019-05-16T05:42:40.413Z,99.90
2019-05-16T05:45:11.183Z,99.90
2019-05-16T05:47:40.411Z,99.90
2019-05-16T05:50:12.367Z,99.90
2019-05-16T05:52:41.352Z,99.90
2019-05-16T05:55:10.874Z,99.90
2019-05-16T05:57:40.405Z,99.90
2019-05-16T06:00:11.513Z,99.90
2019-05-16T06:02:40.462Z,99.90
2019-05-16T06:05:10.666Z,99.90
2019-05-16T06:07:40.453Z,99.90
2019-05-16T06:10:10.682Z,99.90
2019-05-16T06:12:40.850Z,99.90
2019-05-16T06:15:12.780Z,99.90
2019-05-16T06:17:40.888Z,99.90
2019-05-16T06:20:14.549Z,99.90
2019-05-16T06:22:40.407Z,99.90
2019-05-16T06:25:13.087Z,99.90
2019-05-16T06:27:40.683Z,99.90
2019-05-16T06:30:11.376Z,99.90
2019-05-16T06:32:40.184Z,99.90
2019-05-16T06:35:09.723Z,99.90
2019-05-16T06:37:40.709Z,99.90
2019-05-16T06:40:10.949Z,99.90
2019-05-16T06:42:40.295Z,99.90
2019-05-16T06:45:10.444Z,99.90
2019-05-16T06:47:39.739Z,99.90
2019-05-16T06:50:11.400Z,99.90
2019-05-16T06:52:40.904Z,99.90
2019-05-16T06:55:10.369Z,99.90
2019-05-16T06:57:40.893Z,99.90
2019-05-16T07:00:11.024Z,99.90
2019-05-16T07:02:40.916Z,99.90
2019-05-16T07:05:10.393Z,99.90
2019-05-16T07:07:40.418Z,99.90
2019-05-16T07:10:10.303Z,99.90
2019-05-16T07:12:41.138Z,99.90
2019-05-16T07:15:12.228Z,99.90
2019-05-16T07:17:40.843Z,99.90
2019-05-16T07:20:10.442Z,99.90
2019-05-16T07:22:40.653Z,99.90
2019-05-16T07:25:11.045Z,99.90
2019-05-16T07:27:40.149Z,99.90
2019-05-16T07:30:10.721Z,99.90
2019-05-16T07:32:40.491Z,99.90
2019-05-16T07:35:09.851Z,99.90
2019-05-16T07:37:39.924Z,99.90
2019-05-16T07:40:19.265Z,99.90
2019-05-16T07:42:40.358Z,99.90
2019-05-16T07:45:10.631Z,99.90
2019-05-16T07:47:40.336Z,99.90
2019-05-16T07:50:10.501Z,99.90
2019-05-16T07:52:40.248Z,99.90
2019-05-16T07:55:10.727Z,99.90
2019-05-16T07:57:40.046Z,99.90
2019-05-16T08:00:10.071Z,99.90
2019-05-16T08:02:40.283Z,99.90
2019-05-16T08:05:10.289Z,99.90
2019-05-16T08:07:40.677Z,99.90
2019-05-16T08:10:10.926Z,99.90
2019-05-16T08:12:40.664Z,99.90
2019-05-16T08:15:10.559Z,99.90
2019-05-16T08:17:41.358Z,99.90
2019-05-16T08:20:10.865Z,99.90
2019-05-16T08:22:41.640Z,99.90
2019-05-16T08:25:10.839Z,99.90
2019-05-16T08:32:42.159Z,99.90
2019-05-16T08:35:11.679Z,99.90
2019-05-16T08:37:46.034Z,99.90
2019-05-16T08:40:11.598Z,99.90
2019-05-16T08:42:41.597Z,99.90
2019-05-16T08:45:12.472Z,99.90
2019-05-16T08:47:42.557Z,99.90
2019-05-16T08:50:10.872Z,99.90
2019-05-16T08:50:14.379Z,99.90
2019-05-16T08:52:43.407Z,99.90
2019-05-16T08:55:14.027Z,99.90
2019-05-16T08:57:42.564Z,99.90
2019-05-16T09:00:14.453Z,99.90
2019-05-16T09:02:42.979Z,99.90
2019-05-16T09:07:42.153Z,99.90
2019-05-16T09:10:41.994Z,99.90
2019-05-16T09:10:45.926Z,99.90
2019-05-16T09:12:41.331Z,99.90
2019-05-16T09:15:10.320Z,99.90
2019-05-16T09:17:38.853Z,99.90
2019-05-16T09:18:38.454Z,99.90
2019-05-16T09:20:07.844Z,99.90
2019-05-16T09:22:37.736Z,99.90
2019-05-16T09:25:08.632Z,99.90
2019-05-16T09:27:38.136Z,99.90
2019-05-16T09:30:08.640Z,99.90
2019-05-16T09:32:37.278Z,99.90
2019-05-16T09:35:08.081Z,99.90
2019-05-16T09:37:37.642Z,99.80
2019-05-16T09:40:08.746Z,99.90
2019-05-16T09:42:37.536Z,99.90
2019-05-16T09:45:07.791Z,99.90
2019-05-16T09:47:38.964Z,99.90
2019-05-16T09:50:11.448Z,98.90
2019-05-16T09:52:40.078Z,99.90
2019-05-16T09:55:11.620Z,95.90
2019-05-16T09:57:40.603Z,97.70
2019-05-16T10:00:26.695Z,98.00
2019-05-16T10:02:54.171Z,97.20
2019-05-16T10:05:22.839Z,98.40
2019-05-16T10:07:51.324Z,95.90
2019-05-16T10:10:21.192Z,93.80
2019-05-16T10:12:49.818Z,94.80
2019-05-16T10:15:18.956Z,92.90
2019-05-16T10:17:47.841Z,91.90
2019-05-16T10:20:17.166Z,91.00
2019-05-16T10:22:46.814Z,91.70
2019-05-16T10:25:19.049Z,91.00
2019-05-16T10:27:47.516Z,89.10
2019-05-16T10:30:17.825Z,88.70
2019-05-16T10:32:47.772Z,88.30
2019-05-16T10:35:18.121Z,85.40
2019-05-16T10:37:47.163Z,84.50
2019-05-16T10:40:18.273Z,86.30
2019-05-16T10:42:47.334Z,84.00
2019-05-16T10:45:16.792Z,82.80
2019-05-16T10:47:47.819Z,84.30
2019-05-16T10:50:16.641Z,83.00
2019-05-16T10:52:47.514Z,79.80
2019-05-16T10:55:17.640Z,77.90
2019-05-16T10:57:47.394Z,75.80
2019-05-16T11:00:37.112Z,78.80
2019-05-16T11:02:47.623Z,78.00
2019-05-16T11:05:28.736Z,80.50
2019-05-16T11:07:48.613Z,82.80
2019-05-16T11:10:17.404Z,84.70
2019-05-16T11:12:51.897Z,85.30
2019-05-16T11:15:17.385Z,84.60
2019-05-16T11:17:46.149Z,83.80
2019-05-16T11:20:19.619Z,83.70
2019-05-16T11:22:47.715Z,84.10
2019-05-16T11:25:28.119Z,84.60
2019-05-16T11:27:47.215Z,86.10
2019-05-16T11:30:18.346Z,87.50
2019-05-16T11:32:48.287Z,88.30
2019-05-16T11:35:17.378Z,90.70
2019-05-16T11:37:47.235Z,90.30
2019-05-16T11:40:17.786Z,90.60
2019-05-16T11:42:51.980Z,90.60
2019-05-16T11:45:17.199Z,91.40
2019-05-16T11:47:47.137Z,91.10
2019-05-16T11:50:17.770Z,92.00
2019-05-16T11:52:47.642Z,91.20
2019-05-16T11:55:16.870Z,90.70
2019-05-16T11:57:47.585Z,91.40
2019-05-16T12:00:17.936Z,92.30
2019-05-16T12:02:47.756Z,92.50
2019-05-16T12:05:17.563Z,92.80
2019-05-16T12:07:48.547Z,93.50
2019-05-16T12:10:16.955Z,93.80
2019-05-16T12:12:45.505Z,94.40
2019-05-16T12:15:17.533Z,95.50
2019-05-16T12:17:59.167Z,95.90
2019-05-16T12:20:16.714Z,97.90
2019-05-16T12:22:45.031Z,99.10
2019-05-16T12:25:13.632Z,99.80
2019-05-16T12:27:42.722Z,99.90
2019-05-16T12:30:13.686Z,99.90
2019-05-16T12:32:42.359Z,99.90
2019-05-16T12:35:11.219Z,99.90
2019-05-16T12:37:39.779Z,99.90
2019-05-16T12:40:08.844Z,99.90
2019-05-16T12:42:37.868Z,99.90
2019-05-16T12:45:08.040Z,99.90
2019-05-16T12:47:37.539Z,99.90
2019-05-16T12:50:10.678Z,99.90
2019-05-16T12:52:39.737Z,99.90
2019-05-16T12:55:08.810Z,99.90
2019-05-16T12:57:38.456Z,99.90
2019-05-16T13:00:15.414Z,99.90
2019-05-16T13:02:39.643Z,99.90
2019-05-16T13:05:09.512Z,99.90
2019-05-16T13:07:38.063Z,99.90
2019-05-16T13:10:08.437Z,99.90
2019-05-16T13:12:37.707Z,99.90
2019-05-16T13:15:07.354Z,99.90
2019-05-16T13:17:37.296Z,99.90
2019-05-16T13:20:08.058Z,99.90
2019-05-16T13:22:38.414Z,99.90
2019-05-16T13:25:07.977Z,99.90
2019-05-16T13:27:37.350Z,99.90
2019-05-16T13:30:13.876Z,99.90
2019-05-16T13:32:42.496Z,99.90
2019-05-16T13:35:11.395Z,99.90
2019-05-16T13:37:39.876Z,99.90
2019-05-16T13:40:09.144Z,99.90
2019-05-16T13:42:37.701Z,99.90
2019-05-16T13:45:07.971Z,99.90
2019-05-16T13:47:37.547Z,99.90
2019-05-16T13:50:12.098Z,99.90
2019-05-16T13:52:38.780Z,99.90
2019-05-16T13:55:08.558Z,99.90
2019-05-16T13:57:37.569Z,99.90
2019-05-16T14:00:08.661Z,99.90
2019-05-16T14:02:38.171Z,99.90
2019-05-16T14:05:08.140Z,99.90
2019-05-16T14:07:37.667Z,99.90
2019-05-16T14:10:08.112Z,99.90
2019-05-16T14:12:36.946Z,99.90
2019-05-16T14:15:09.232Z,99.90
2019-05-16T14:17:37.868Z,99.90
2019-05-16T14:20:14.721Z,99.90
2019-05-16T14:22:38.289Z,99.90
2019-05-16T14:25:08.552Z,99.90
2019-05-16T14:27:38.143Z,99.90
2019-05-16T14:30:10.606Z,99.90
2019-05-16T14:32:42.721Z,99.90
2019-05-16T14:35:09.700Z,99.90
2019-05-16T14:37:38.411Z,99.90
2019-05-16T14:40:08.126Z,99.90
2019-05-16T14:42:38.840Z,99.90
2019-05-16T14:45:12.857Z,99.90
2019-05-16T14:47:40.301Z,99.90
2019-05-16T14:50:13.005Z,99.90
2019-05-16T14:52:39.145Z,99.90
2019-05-16T14:55:07.816Z,99.90
2019-05-16T14:57:36.895Z,99.90
2019-05-16T15:00:07.479Z,99.90
2019-05-16T15:02:38.117Z,99.90
2019-05-16T15:05:08.279Z,99.90
2019-05-16T15:07:37.515Z,99.90
2019-05-16T15:10:08.380Z,99.90
2019-05-16T15:12:37.755Z,99.90
2019-05-16T15:15:20.192Z,99.90
2019-05-16T15:17:38.738Z,99.90
2019-05-16T15:20:08.524Z,99.90
2019-05-16T15:22:38.432Z,99.90
2019-05-16T15:25:08.506Z,99.90
2019-05-16T15:27:37.463Z,99.90
2019-05-16T15:30:10.128Z,99.90
2019-05-16T15:32:38.861Z,99.90
2019-05-16T15:35:08.090Z,99.90
2019-05-16T15:37:37.458Z,99.90
2019-05-16T15:40:08.183Z,99.90
2019-05-16T15:42:37.470Z,99.90
2019-05-16T15:45:07.993Z,99.90
2019-05-16T15:47:37.527Z,99.90
2019-05-16T15:50:08.564Z,99.90
2019-05-16T15:52:38.553Z,99.90
2019-05-16T15:55:11.047Z,99.90
2019-05-16T15:57:39.592Z,99.90
2019-05-16T16:00:10.622Z,99.90
2019-05-16T16:02:39.973Z,99.90
2019-05-16T16:05:09.368Z,99.90
2019-05-16T16:07:38.263Z,99.90
2019-05-16T16:10:08.077Z,99.90
2019-05-16T16:12:37.763Z,99.90
2019-05-16T16:15:07.826Z,99.90
2019-05-16T16:17:38.127Z,99.90
2019-05-16T16:20:10.406Z,99.90
2019-05-16T16:22:38.482Z,99.90
2019-05-16T16:25:07.559Z,99.90
2019-05-16T16:27:36.053Z,99.90
2019-05-16T16:30:07.118Z,99.90
2019-05-16T16:32:38.047Z,99.90
2019-05-16T16:35:08.116Z,99.90
2019-05-16T16:37:37.831Z,99.90
2019-05-16T16:40:11.421Z,99.90
2019-05-16T16:42:37.911Z,99.90
2019-05-16T16:45:07.389Z,99.90
2019-05-16T16:47:37.890Z,99.90
2019-05-16T16:50:08.006Z,99.90
2019-05-16T16:52:37.974Z,99.90
2019-05-16T16:55:10.244Z,99.90
2019-05-16T16:57:38.848Z,99.90
2019-05-16T17:00:09.821Z,99.90
2019-05-16T17:02:38.285Z,99.90
2019-05-16T17:05:11.730Z,99.90
2019-05-16T17:07:37.721Z,99.90
2019-05-16T17:10:07.967Z,99.90
2019-05-16T17:12:41.979Z,99.90
2019-05-16T17:15:08.902Z,99.90
2019-05-16T17:17:37.775Z,99.90
2019-05-16T17:20:08.228Z,99.90
2019-05-16T17:22:37.908Z,99.90
2019-05-16T17:25:09.556Z,99.90
2019-05-16T17:27:38.102Z,99.90
2019-05-16T17:30:12.519Z,99.90
2019-05-16T17:32:41.047Z,99.90
2019-05-16T17:35:09.740Z,99.90
2019-05-16T17:37:38.271Z,99.90
2019-05-16T17:40:07.712Z,99.90
2019-05-16T17:42:37.374Z,99.90
2019-05-16T17:45:07.333Z,99.90
2019-05-16T17:47:37.028Z,99.90
2019-05-16T17:50:08.563Z,99.90
2019-05-16T17:52:37.359Z,99.90
2019-05-16T17:55:07.757Z,99.90
2019-05-16T17:57:37.107Z,99.90
2019-05-16T18:00:13.023Z,99.90
2019-05-16T18:02:38.963Z,99.90
2019-05-16T18:05:09.083Z,99.90
2019-05-16T18:07:37.549Z,99.90
2019-05-16T18:10:07.585Z,99.90
2019-05-16T18:12:37.189Z,99.90
2019-05-16T18:15:08.477Z,99.90
2019-05-16T18:17:37.379Z,99.90
2019-05-16T18:20:07.952Z,99.90
2019-05-16T18:22:36.689Z,99.90
2019-05-16T18:25:07.097Z,99.90
2019-05-16T18:27:37.644Z,99.90
2019-05-16T18:30:08.259Z,99.90
2019-05-16T18:32:37.432Z,99.90
2019-05-16T18:35:08.014Z,99.90
2019-05-16T18:37:36.696Z,99.90
2019-05-16T18:40:09.855Z,99.90
2019-05-16T18:42:38.383Z,99.90
2019-05-16T18:45:07.760Z,99.90
2019-05-16T18:47:37.835Z,99.90
2019-05-16T18:50:08.187Z,99.90
2019-05-16T18:52:37.523Z,99.90
2019-05-16T18:55:08.469Z,99.90
2019-05-16T18:57:37.871Z,99.90
2019-05-16T19:00:10.946Z,99.90
2019-05-16T19:02:39.055Z,99.90
2019-05-16T19:05:08.528Z,99.90
2019-05-16T19:07:37.581Z,99.90
2019-05-16T19:10:09.536Z,99.90
2019-05-16T19:12:38.021Z,99.90
2019-05-16T19:15:08.264Z,99.90
2019-05-16T19:17:37.168Z,99.90
2019-05-16T19:20:06.914Z,99.90
2019-05-16T19:22:37.205Z,99.90
2019-05-16T19:25:07.816Z,99.90
2019-05-16T19:27:37.051Z,99.90
2019-05-16T19:30:08.037Z,99.90
2019-05-16T19:32:39.065Z,99.90
2019-05-16T19:35:11.208Z,99.90
2019-05-16T19:37:40.712Z,99.90
2019-05-16T19:40:10.175Z,99.90
2019-05-16T19:42:38.667Z,99.90
2019-05-16T19:45:08.319Z,99.90
2019-05-16T19:47:40.904Z,99.90
2019-05-16T19:50:07.720Z,99.90
2019-05-16T19:52:36.827Z,99.90
2019-05-16T19:55:07.507Z,99.90
2019-05-16T19:57:37.421Z,99.90
2019-05-16T20:00:08.354Z,99.90
2019-05-16T20:02:37.720Z,99.90
2019-05-16T20:05:08.072Z,99.90
2019-05-16T20:07:37.237Z,99.90
2019-05-16T20:10:09.504Z,99.90
2019-05-16T20:12:38.004Z,99.90
2019-05-16T20:15:11.732Z,99.90
2019-05-16T20:17:50.915Z,99.90
2019-05-16T20:20:09.761Z,99.90
2019-05-16T20:22:38.461Z,99.90
2019-05-16T20:25:08.356Z,99.90
2019-05-16T20:27:37.008Z,99.90
2019-05-16T20:30:07.912Z,99.90
2019-05-16T20:32:37.150Z,99.90
2019-05-16T20:35:08.839Z,99.90
2019-05-16T20:37:37.275Z,99.90
2019-05-16T20:40:08.829Z,99.90
2019-05-16T20:42:36.901Z,99.90
2019-05-16T20:45:09.369Z,99.90
2019-05-16T20:47:37.896Z,99.90
2019-05-16T20:50:08.954Z,99.90
2019-05-16T20:52:38.037Z,99.90
2019-05-16T20:55:08.238Z,99.90
2019-05-16T20:57:37.742Z,99.90
2019-05-16T21:00:09.849Z,99.90
2019-05-16T21:02:38.512Z,99.90
2019-05-16T21:05:07.274Z,99.90
2019-05-16T21:07:37.457Z,99.90
2019-05-16T21:10:07.918Z,99.90
2019-05-16T21:12:40.163Z,99.90
2019-05-16T21:15:08.139Z,99.90
2019-05-16T21:17:36.694Z,99.90
2019-05-16T21:20:07.422Z,99.90
2019-05-16T21:22:37.124Z,99.90
2019-05-16T21:25:06.368Z,99.90
2019-05-16T21:27:37.480Z,99.90
2019-05-16T21:30:08.608Z,99.90
2019-05-16T21:32:37.244Z,99.90
2019-05-16T21:35:09.203Z,99.90
2019-05-16T21:37:37.763Z,99.90
2019-05-16T21:40:08.336Z,99.90
2019-05-16T21:42:36.963Z,99.90
2019-05-16T21:45:08.236Z,99.90
2019-05-16T21:47:37.196Z,99.90
2019-05-16T21:50:08.891Z,99.90
2019-05-16T21:52:37.439Z,99.90
2019-05-16T21:55:08.667Z,99.90
2019-05-16T21:57:37.756Z,99.90
2019-05-16T22:00:11.290Z,99.90
2019-05-16T22:02:40.017Z,99.90
2019-05-16T22:05:09.261Z,99.90
2019-05-16T22:07:37.792Z,99.90
2019-05-16T22:10:07.727Z,99.90
2019-05-16T22:12:38.385Z,99.90
2019-05-16T22:15:08.176Z,99.90
2019-05-16T22:17:36.805Z,99.90
2019-05-16T22:20:08.851Z,99.90
2019-05-16T22:22:38.156Z,99.90
2019-05-16T22:25:07.939Z,99.90
2019-05-16T22:27:36.523Z,99.90
2019-05-16T22:30:11.112Z,99.90
2019-05-16T22:32:39.787Z,99.90
2019-05-16T22:35:08.725Z,99.90
2019-05-16T22:37:49.283Z,99.90
2019-05-16T22:40:07.907Z,99.90
2019-05-16T22:42:37.527Z,99.90
2019-05-16T22:45:08.984Z,99.90
2019-05-16T22:47:37.920Z,99.90
2019-05-16T22:50:08.473Z,99.90
2019-05-16T22:52:37.163Z,99.90
2019-05-16T22:55:07.440Z,99.90
2019-05-16T22:57:36.199Z,99.90
2019-05-16T23:00:10.672Z,99.90
2019-05-16T23:02:39.227Z,99.90
2019-05-16T23:05:08.208Z,99.90
2019-05-16T23:07:36.949Z,99.90
2019-05-16T23:10:07.237Z,99.90
2019-05-16T23:12:37.190Z,99.90
2019-05-16T23:15:06.818Z,99.90
2019-05-16T23:17:37.570Z,99.90
2019-05-16T23:20:07.792Z,99.90
2019-05-16T23:22:36.769Z,99.90
2019-05-16T23:25:06.669Z,99.90
2019-05-16T23:27:36.808Z,99.90
2019-05-16T23:30:11.773Z,99.90
2019-05-16T23:32:40.585Z,99.90
2019-05-16T23:35:09.676Z,99.90
2019-05-16T23:37:38.208Z,99.90
2019-05-16T23:40:06.931Z,99.90
2019-05-16T23:42:37.139Z,99.90
2019-05-16T23:45:08.730Z,99.90
2019-05-16T23:47:38.007Z,99.90
2019-05-16T23:50:07.724Z,99.90
2019-05-16T23:52:36.966Z,99.90
2019-05-16T23:55:08.187Z,99.90
2019-05-16T23:57:37.614Z,99.90
